Flight Track Log - Related Links

Times and Time Zones

All times are in EDT time to prevent confusion due to time zone crossing. See the XOJ552 flight status page for this flight to view local times or setup timezone preferences in your user account.

Time Position Orientation Groundspeed Altitude Reporting Facility
EDT Latitude Longitude Course Direction KTS MPH feet Rate Location/Type
Fri 10:22:43 AM 40.8833 -74.0500 270° West 186 214 1,900  Level New York TRACON
Fri 10:23:37 AM 40.9167 -74.0667 339° North 226 260 4,000 2,211 Climbing New York TRACON
Fri 10:24:37 AM 40.9167 -74.1667 270° West 274 315 6,100 2,150 Climbing New York TRACON
Fri 10:25:37 AM 40.9000 -74.2833 259° West 293 337 8,300 2,750 Climbing New York TRACON
Fri 10:26:37 AM 40.8833 -74.3833 258° West 312 359 11,600 3,100 Climbing New York TRACON
Fri 10:27:37 AM 40.8333 -74.5000 241° Southwest 374 430 14,500 1,620 Climbing New York TRACON
Fri 10:28:00 AM 40.7000 -74.8844 270° West  Level FlightAware Approximate
Fri 10:29:57 AM 40.7294 -74.7636 243° Southwest 369 425 17,000  Level New York Center
Fri 10:30:58 AM 40.7106 -74.8911 259° West 401 461 17,900 1,475 Climbing New York Center
Fri 10:31:59 AM 40.6858 -75.0567 259° West 414 476 20,000 2,380 Climbing New York Center
Fri 10:32:59 AM 40.6306 -75.1983 243° Southwest 426 490 22,700 2,769 Climbing New York Center
Fri 10:33:56 AM 40.5669 -75.3389 239° Southwest 437 503 25,400 2,695 Climbing New York Center
Fri 10:34:57 AM 40.5033 -75.4767 239° Southwest 443 510 28,000 2,361 Climbing New York Center
Fri 10:35:58 AM 40.4369 -75.6194 239° Southwest 451 519 30,200 2,115 Climbing New York Center
Fri 10:36:59 AM 40.3728 -75.7592 239° Southwest 456 525 32,300 2,118 Climbing New York Center
Fri 10:37:57 AM 40.3083 -75.8989 239° Southwest 456 525 34,400 2,067 Climbing New York Center
Fri 10:38:58 AM 40.2378 -76.0378 236° Southwest 456 525 36,400 1,623 Climbing New York Center
Fri 10:39:59 AM 40.1847 -76.1506 238° Southwest 456 525 37,700 1,438 Climbing New York Center
Fri 10:40:59 AM 40.1206 -76.3194 244° Southwest 441 507 39,300 1,881 Climbing New York Center
Fri 10:41:57 AM 40.0953 -76.4558 256° West 434 499 41,400 1,613 Climbing New York Center
Fri 10:42:58 AM 40.0594 -76.5911 251° West 417 480 42,500 793 Climbing New York Center
Fri 10:43:58 AM 40.0192 -76.7317 250° West 417 480 43,000 155 Climbing New York Center
Fri 10:46:12 AM 39.9211 -77.0739 250° West 437 503 43,000  Level Washington Center
Fri 10:47:13 AM 39.8797 -77.2219 250° West 442 509 43,000  Level Washington Center
Fri 10:48:10 AM 39.8403 -77.3694 251° West 442 509 43,000  Level Washington Center
Fri 10:49:11 AM 39.7983 -77.5225 250° West 442 509 43,000  Level Washington Center
Fri 10:50:12 AM 39.7561 -77.6697 250° West 442 509 43,000  Level Washington Center
Fri 10:51:12 AM 39.7119 -77.8222 249° West 442 509 43,000  Level Washington Center
Fri 10:52:13 AM 39.6694 -77.9719 250° West 442 509 43,000  Level Washington Center
Fri 10:53:13 AM 39.6267 -78.1214 250° West 442 509 43,000  Level Washington Center
Fri 10:54:12 AM 39.5819 -78.2706 249° West 442 509 43,000  Level Washington Center
Fri 10:55:12 AM 39.5389 -78.4197 250° West 442 509 43,000  Level Washington Center
Fri 10:56:13 AM 39.4936 -78.5686 249° West 442 509 43,000  Level Washington Center
Fri 10:57:13 AM 39.4522 -78.7175 250° West 442 509 43,000  Level Washington Center
Fri 10:58:13 AM 39.4044 -78.8658 247° West 442 509 43,000  Level Washington Center
Fri 10:59:11 AM 39.3608 -79.0142 249° West 447 514 43,000  Level Washington Center
Fri 11:00:12 AM 39.3169 -79.1597 249° West 447 514 43,000  Level Washington Center
Fri 11:01:12 AM 39.2775 -79.2944 249° West 447 514 43,000  Level Washington Center
Fri 11:02:13 AM 39.2356 -79.4369 249° West 442 509 43,000  Level Washington Center
Fri 11:03:11 AM 39.1889 -79.5844 248° West 442 509 43,000  Level Washington Center
Fri 11:04:11 AM 39.1444 -79.7294 248° West 442 509 43,000  Level Washington Center
Fri 11:05:11 AM 39.0997 -79.8767 249° West 442 509 43,000  Level Washington Center
Fri 11:06:12 AM 39.0550 -80.0211 248° West 442 509 43,000  Level Washington Center
Fri 11:07:38 AM 38.9786 -80.2478 247° West 439 505 43,000  Level Indianapolis Center
Fri 11:08:40 AM 38.9319 -80.3931 248° West 440 506 43,000  Level Indianapolis Center
Fri 11:09:42 AM 38.8861 -80.5397 248° West 442 509 43,000  Level Indianapolis Center
Fri 11:10:44 AM 38.8394 -80.6839 247° West 439 505 43,000  Level Indianapolis Center
Fri 11:11:46 AM 38.7931 -80.8300 248° West 442 509 43,000  Level Indianapolis Center
Fri 11:12:47 AM 38.7456 -80.9750 247° West 441 507 43,000  Level Indianapolis Center
Fri 11:13:49 AM 38.6983 -81.1194 247° West 439 505 43,000  Level Indianapolis Center
Fri 11:14:51 AM 38.6500 -81.2639 247° West 439 505 43,000  Level Indianapolis Center
Fri 11:15:53 AM 38.5992 -81.4208 248° West 439 505 43,000  Level Indianapolis Center
Fri 11:16:54 AM 38.5436 -81.5897 247° West 441 507 43,000  Level Indianapolis Center
Fri 11:17:56 AM 38.4953 -81.7361 247° West 443 510 43,000 -145 Level Indianapolis Center
Fri 11:18:58 AM 38.4469 -81.8803 247° West 441 507 42,700 -683 Descending Indianapolis Center
Fri 11:19:59 AM 38.4003 -82.0250 248° West 441 507 41,600 -1,073 Descending Indianapolis Center
Fri 11:21:01 AM 38.3517 -82.1661 246° West 436 502 40,500 -1,258 Descending Indianapolis Center
Fri 11:22:03 AM 38.3067 -82.3019 247° West 418 481 39,000 -1,645 Descending Indianapolis Center
Fri 11:23:05 AM 38.2583 -82.4389 246° West 427 491 37,100 -2,049 Descending Indianapolis Center
Fri 11:24:06 AM 38.2011 -82.6069 247° West 450 518 34,800 -2,129 Descending Indianapolis Center
Fri 11:25:09 AM 38.1503 -82.7550 246° West 457 526 32,700 -1,355 Descending Indianapolis Center
Fri 11:26:10 AM 38.0997 -82.9014 246° West 453 521 32,000 -341 Descending Indianapolis Center
Fri 11:27:12 AM 38.0478 -83.0531 247° West 464 534 32,000  Level Indianapolis Center
Fri 11:28:14 AM 37.9956 -83.2036 246° West 468 539 32,000  Level Indianapolis Center
Fri 11:29:15 AM 37.9319 -83.3811 246° West 473 544 32,000  Level Indianapolis Center
Fri 11:30:17 AM 37.8775 -83.5328 246° West 476 548 32,000 -387 Level Indianapolis Center
Fri 11:31:19 AM 37.8244 -83.6833 246° West 471 542 31,200 -1,452 Descending Indianapolis Center
Fri 11:32:21 AM 37.7719 -83.8300 246° West 461 531 29,000 -2,129 Descending Indianapolis Center
Fri 11:33:23 AM 37.7203 -83.9736 246° West 452 520 26,800 -2,226 Descending Indianapolis Center
Fri 11:34:25 AM 37.6708 -84.1100 245° Southwest 436 502 24,400 -1,935 Descending Indianapolis Center
Fri 11:35:27 AM 37.6194 -84.2669 248° West 421 484 22,800 -1,645 Descending Indianapolis Center
Fri 11:36:29 AM 37.5803 -84.4000 250° West 409 471 21,000 -1,887 Descending Indianapolis Center
Fri 11:37:31 AM 37.5386 -84.5308 248° West 403 464 18,900 -1,984 Descending Indianapolis Center
Fri 11:38:33 AM 37.5008 -84.6536 249° West 380 437 16,900 -2,032 Descending Indianapolis Center
Fri 11:39:35 AM 37.5267 -84.7786 285° West 391 450 14,700 -2,226 Descending Indianapolis Center
Fri 11:40:37 AM 37.6086 -84.8922 312° West 375 432 12,300 -2,129 Descending Indianapolis Center
Fri 11:41:39 AM 37.6769 -84.9878 312° West 368 423 10,300 -1,113 Descending Indianapolis Center
Fri 11:42:41 AM 37.7439 -85.0792 313° West 357 411 10,000 -145 Descending Indianapolis Center
Fri 11:43:43 AM 37.8119 -85.1731 313° West 360 414 10,000 -48 Level Indianapolis Center
Fri 11:44:45 AM 37.8839 -85.2689 314° West 359 413 9,900 -726 Descending Indianapolis Center
Fri 11:45:47 AM 37.9397 -85.3478 312° West 307 353 8,500 -1,355 Descending Indianapolis Center
Fri 11:46:49 AM 37.9950 -85.4269 312° West 299 344 7,100 -1,210 Descending Indianapolis Center
Fri 11:47:51 AM 38.0522 -85.5047 313° West 300 345 6,000 -532 Descending Indianapolis Center
Fri 11:48:53 AM 38.1072 -85.5806 313° West 297 342 6,000  Level Indianapolis Center
Fri 11:49:55 AM 38.1900 -85.6333 333° Northwest 286 329 6,000 -581 Level Indianapolis Center
Fri 11:50:57 AM 38.2564 -85.6650 339° North 263 303 4,800 -968 Descending Indianapolis Center
Fri 11:51:59 AM 38.3225 -85.7003 337° Northwest 259 298 4,000 -919 Descending Indianapolis Center
Fri 11:53:01 AM 38.3097 -85.7664 256° West 222 255 2,900 -726 Descending Indianapolis Center
Fri 11:54:03 AM 38.2719 -85.7633 176° South 180 207 2,500 -290 Descending Indianapolis Center
Fri 11:55:05 AM 38.2375 -85.7525 166° South 171 197 2,300 -194 Descending Indianapolis Center

Login

Don't have an account? Register now (free) for customized features, flight alerts, and more!